createdAt,value
2022-11-20T00:00:54.928Z,99345.84
2022-11-20T00:03:23.897Z,99331.72
2022-11-20T00:05:51.708Z,99322.47
2022-11-20T00:08:19.295Z,99332.09
2022-11-20T00:10:47.161Z,99327.16
2022-11-20T00:13:14.736Z,99323.34
2022-11-20T00:15:42.380Z,99315.97
2022-11-20T00:18:11.374Z,99326.38
2022-11-20T00:20:39.372Z,99308.16
2022-11-20T00:23:07.944Z,99319.69
2022-11-20T00:25:36.250Z,99314.19
2022-11-20T00:28:03.943Z,99316.97
2022-11-20T00:30:31.578Z,99323.22
2022-11-20T00:32:59.539Z,99323.47
2022-11-20T00:35:28.526Z,99322.78
2022-11-20T00:37:56.163Z,99320.56
2022-11-20T00:40:23.760Z,99325.66
2022-11-20T00:42:51.375Z,99337.25
2022-11-20T00:45:18.974Z,99337.84
2022-11-20T00:47:46.632Z,99338.59
2022-11-20T00:50:15.383Z,99344.66
2022-11-20T00:52:44.541Z,99346.50
2022-11-20T00:55:12.173Z,99345.69
2022-11-20T00:57:39.771Z,99346.94
2022-11-20T01:00:09.064Z,99347.56
2022-11-20T01:02:36.886Z,99343.19
2022-11-20T01:05:04.789Z,99330.94
2022-11-20T01:07:33.872Z,99323.75
2022-11-20T01:10:02.850Z,99336.13
2022-11-20T01:12:30.447Z,99330.50
2022-11-20T01:14:58.150Z,99325.97
2022-11-20T01:17:25.780Z,99330.25
2022-11-20T01:19:53.391Z,99328.03
2022-11-20T01:22:21.088Z,99329.16
2022-11-20T01:24:48.980Z,99331.34
2022-11-20T01:27:17.952Z,99334.16
2022-11-20T01:29:45.563Z,99330.19
2022-11-20T01:32:13.313Z,99335.47
2022-11-20T01:34:40.979Z,99329.41
2022-11-20T01:37:08.698Z,99329.97
2022-11-20T01:39:36.325Z,99322.38
2022-11-20T01:42:21.288Z,99314.13
2022-11-20T01:44:57.071Z,99314.25
2022-11-20T01:47:33.660Z,99307.06
2022-11-20T01:50:06.203Z,99309.56
2022-11-20T01:52:38.800Z,99316.88
2022-11-20T01:55:11.602Z,99311.78
2022-11-20T01:57:40.516Z,99310.28
2022-11-20T02:00:13.196Z,99302.81
2022-11-20T02:02:43.009Z,99303.25
2022-11-20T02:05:21.412Z,99296.19
2022-11-20T02:07:50.388Z,99291.69
2022-11-20T02:10:18.155Z,99292.06
2022-11-20T02:13:03.627Z,99297.38
2022-11-20T02:15:36.235Z,99291.31
2022-11-20T02:18:03.912Z,99297.16
2022-11-20T02:20:31.678Z,99294.06
2022-11-20T02:23:05.731Z,99300.13
2022-11-20T02:25:37.107Z,99303.25
2022-11-20T02:28:05.632Z,99292.13
2022-11-20T02:30:33.475Z,99299.72
2022-11-20T02:33:01.272Z,99297.38
2022-11-20T02:35:43.967Z,99295.28
2022-11-20T02:38:11.954Z,99301.00
2022-11-20T02:40:41.042Z,99303.78
2022-11-20T02:43:09.181Z,99299.94
2022-11-20T02:45:37.127Z,99296.84
2022-11-20T02:48:04.960Z,99293.41
2022-11-20T02:50:32.587Z,99286.31
2022-11-20T02:53:00.195Z,99287.81
2022-11-20T02:55:27.854Z,99283.56
2022-11-20T02:57:56.828Z,99279.63
2022-11-20T03:00:24.733Z,99281.31
2022-11-20T03:02:52.518Z,99279.69
2022-11-20T03:05:20.221Z,99283.13
2022-11-20T03:07:47.871Z,99279.53
2022-11-20T03:10:15.555Z,99288.91
2022-11-20T03:12:44.246Z,99281.91
2022-11-20T03:15:13.459Z,99290.19
2022-11-20T03:17:42.248Z,99267.69
2022-11-20T03:20:11.032Z,99270.19
2022-11-20T03:22:38.663Z,99273.47
2022-11-20T03:25:07.038Z,99272.06
2022-11-20T03:27:35.916Z,99262.44
2022-11-20T03:30:04.113Z,99260.56
2022-11-20T03:32:33.299Z,99263.72
2022-11-20T03:35:00.967Z,99260.97
2022-11-20T03:37:28.592Z,99262.44
2022-11-20T03:39:56.452Z,99278.03
2022-11-20T03:42:41.748Z,99277.19
2022-11-20T03:45:10.447Z,99268.63
2022-11-20T03:47:39.475Z,99264.50
2022-11-20T03:50:08.030Z,99263.09
2022-11-20T03:52:35.679Z,99257.16
2022-11-20T03:55:03.407Z,99263.25
2022-11-20T03:57:31.255Z,99255.53
2022-11-20T03:59:58.898Z,99243.44
2022-11-20T04:02:26.756Z,99233.78
2022-11-20T04:04:55.883Z,99250.06
2022-11-20T04:07:23.570Z,99251.72
2022-11-20T04:09:51.297Z,99255.44
2022-11-20T04:12:19.121Z,99267.56
2022-11-20T04:14:46.787Z,99264.00
2022-11-20T04:17:14.413Z,99267.72
2022-11-20T04:19:41.988Z,99269.34
2022-11-20T04:22:12.551Z,99272.81
2022-11-20T04:24:40.217Z,99261.75
2022-11-20T04:27:07.885Z,99267.56
2022-11-20T04:29:35.586Z,99272.38
2022-11-20T04:32:03.278Z,99262.16
2022-11-20T04:34:30.905Z,99269.75
2022-11-20T04:36:58.663Z,99251.03
2022-11-20T04:39:27.704Z,99246.81
2022-11-20T04:42:15.349Z,99243.22
2022-11-20T04:44:44.068Z,99249.63
2022-11-20T04:47:11.639Z,99244.75
2022-11-20T04:49:39.958Z,99243.63
2022-11-20T04:52:07.795Z,99242.78
2022-11-20T04:54:36.808Z,99243.97
2022-11-20T04:57:04.408Z,99237.78
2022-11-20T04:59:32.199Z,99233.66
2022-11-20T05:02:00.204Z,99236.84
2022-11-20T05:04:27.875Z,99248.03
2022-11-20T05:06:55.683Z,99244.13
2022-11-20T05:09:23.621Z,99240.34
2022-11-20T05:11:53.042Z,99240.31
2022-11-20T05:14:20.697Z,99249.88
2022-11-20T05:16:48.356Z,99249.16
2022-11-20T05:19:16.225Z,99245.66
2022-11-20T05:21:43.899Z,99248.38
2022-11-20T05:24:11.765Z,99235.97
2022-11-20T05:26:39.383Z,99224.94
2022-11-20T05:29:34.440Z,99230.44
2022-11-20T05:32:02.128Z,99223.56
2022-11-20T05:34:30.284Z,99217.59
2022-11-20T05:36:58.046Z,99222.41
2022-11-20T05:39:25.733Z,99223.25
2022-11-20T05:42:13.551Z,99223.84
2022-11-20T05:44:42.536Z,99218.75
2022-11-20T05:47:11.292Z,99221.75
2022-11-20T05:49:38.887Z,99223.00
2022-11-20T05:52:06.521Z,99220.38
2022-11-20T05:54:34.459Z,99225.50
2022-11-20T05:57:02.769Z,99227.72
2022-11-20T05:59:30.403Z,99222.97
2022-11-20T06:01:59.471Z,99222.13
2022-11-20T06:04:27.309Z,99219.78
2022-11-20T06:06:55.060Z,99216.53
2022-11-20T06:09:22.884Z,99205.38
2022-11-20T06:11:50.764Z,99211.72
2022-11-20T06:14:18.441Z,99219.44
2022-11-20T06:16:46.060Z,99216.72
2022-11-20T06:19:15.917Z,99220.22
2022-11-20T06:21:43.810Z,99207.47
2022-11-20T06:24:12.088Z,99211.03
2022-11-20T06:26:39.731Z,99212.09
2022-11-20T06:29:07.447Z,99214.97
2022-11-20T06:31:38.539Z,99219.69
2022-11-20T06:34:06.916Z,99211.47
2022-11-20T06:36:36.147Z,99222.66
2022-11-20T06:39:04.382Z,99224.94
2022-11-20T06:41:32.088Z,99222.13
2022-11-20T06:43:59.692Z,99221.00
2022-11-20T06:46:27.440Z,99219.25
2022-11-20T06:48:55.689Z,99220.28
2022-11-20T06:51:23.371Z,99212.63
2022-11-20T06:53:52.378Z,99225.38
2022-11-20T06:56:20.028Z,99218.94
2022-11-20T06:58:47.732Z,99224.13
2022-11-20T07:01:16.687Z,99230.44
2022-11-20T07:03:44.502Z,99222.50
2022-11-20T07:06:12.830Z,99229.34
2022-11-20T07:08:40.512Z,99232.75
2022-11-20T07:11:10.226Z,99232.41
2022-11-20T07:13:37.812Z,99242.78
2022-11-20T07:16:08.550Z,99244.41
2022-11-20T07:18:36.246Z,99243.78
2022-11-20T07:21:04.774Z,99239.72
2022-11-20T07:23:32.612Z,99242.03
2022-11-20T07:26:00.337Z,99247.88
2022-11-20T07:28:29.330Z,99246.56
2022-11-20T07:30:56.913Z,99245.19
2022-11-20T07:33:24.503Z,99248.53
2022-11-20T07:35:52.180Z,99246.16
2022-11-20T07:38:19.872Z,99242.41
2022-11-20T07:40:47.510Z,99244.72
2022-11-20T07:43:15.120Z,99250.84
2022-11-20T07:45:44.115Z,99248.88
2022-11-20T07:48:11.735Z,99249.13
2022-11-20T07:50:39.344Z,99249.22
2022-11-20T07:53:07.710Z,99234.81
2022-11-20T07:55:35.393Z,99242.81
2022-11-20T07:58:03.069Z,99247.50
2022-11-20T08:00:31.439Z,99244.06
2022-11-20T08:03:00.447Z,99245.78
2022-11-20T08:05:28.209Z,99251.31
2022-11-20T08:07:55.881Z,99249.38
2022-11-20T08:10:23.647Z,99253.66
2022-11-20T08:13:10.703Z,99249.88
2022-11-20T08:15:40.374Z,99251.19
2022-11-20T08:20:59.276Z,99268.53
2022-11-20T08:23:26.888Z,99268.63
2022-11-20T08:25:54.571Z,99275.94
2022-11-20T08:28:22.589Z,99281.41
2022-11-20T08:30:51.628Z,99275.38
2022-11-20T08:33:20.697Z,99277.63
2022-11-20T08:35:48.282Z,99284.50
2022-11-20T08:38:15.956Z,99287.19
2022-11-20T08:41:03.636Z,99286.69
2022-11-20T08:43:31.425Z,99299.34
2022-11-20T08:45:59.254Z,99296.34
2022-11-20T08:48:28.216Z,99298.97
2022-11-20T08:50:59.262Z,99299.44
2022-11-20T08:53:27.434Z,99307.06
2022-11-20T08:55:55.517Z,99307.41
2022-11-20T08:58:23.164Z,99300.81
2022-11-20T09:00:50.898Z,99300.34
2022-11-20T09:03:18.564Z,99298.66
2022-11-20T09:05:47.519Z,99307.56
2022-11-20T09:08:15.215Z,99306.59
2022-11-20T09:10:42.907Z,99303.25
2022-11-20T09:13:10.671Z,99307.56
2022-11-20T09:15:38.289Z,99312.31
2022-11-20T09:18:06.428Z,99307.97
2022-11-20T09:20:34.261Z,99307.69
2022-11-20T09:23:03.487Z,99313.81
2022-11-20T09:25:31.282Z,99309.16
2022-11-20T09:27:59.593Z,99308.25
2022-11-20T09:30:27.671Z,99312.13
2022-11-20T09:32:55.641Z,99311.94
2022-11-20T09:35:23.304Z,99315.56
2022-11-20T09:37:51.211Z,99313.66
2022-11-20T09:40:22.866Z,99309.50
2022-11-20T09:42:56.334Z,99316.16
2022-11-20T09:45:32.318Z,99321.81
2022-11-20T09:48:27.867Z,99313.91
2022-11-20T09:51:03.219Z,99319.72
2022-11-20T09:53:39.650Z,99324.19
2022-11-20T09:56:16.950Z,99328.84
2022-11-20T09:58:50.897Z,99318.13
2022-11-20T10:01:19.981Z,99327.44
2022-11-20T10:03:56.165Z,99322.19
2022-11-20T10:06:30.761Z,99314.75
2022-11-20T10:09:08.240Z,99314.16
2022-11-20T10:11:49.692Z,99310.78
2022-11-20T10:14:30.329Z,99307.56
2022-11-20T10:17:05.619Z,99301.94
2022-11-20T10:19:56.979Z,99290.81
2022-11-20T10:22:41.425Z,99295.03
2022-11-20T10:25:16.228Z,99298.75
2022-11-20T10:28:09.823Z,99301.63
2022-11-20T10:30:42.308Z,99300.34
2022-11-20T10:33:17.999Z,99303.25
2022-11-20T10:35:52.088Z,99300.31
2022-11-20T10:38:25.783Z,99309.03
2022-11-20T10:41:18.429Z,99293.06
2022-11-20T10:43:48.883Z,99288.69
2022-11-20T10:46:19.483Z,99284.28
2022-11-20T10:48:48.555Z,99279.38
2022-11-20T10:51:27.209Z,99275.47
2022-11-20T10:54:11.865Z,99273.69
2022-11-20T10:56:48.361Z,99260.16
2022-11-20T10:59:48.964Z,99270.38
2022-11-20T11:02:21.298Z,99268.72
2022-11-20T11:04:51.220Z,99256.41
2022-11-20T11:07:23.479Z,99256.22
2022-11-20T11:09:53.983Z,99243.16
2022-11-20T11:12:22.836Z,99249.94
2022-11-20T11:14:54.216Z,99248.78
2022-11-20T11:17:27.815Z,99243.00
2022-11-20T11:20:04.044Z,99242.69
2022-11-20T11:22:33.524Z,99243.22
2022-11-20T11:25:01.951Z,99235.31
2022-11-20T11:27:29.739Z,99229.06
2022-11-20T11:30:14.822Z,99230.84
2022-11-20T11:32:42.443Z,99223.09
2022-11-20T11:35:24.791Z,99225.06
2022-11-20T11:37:55.109Z,99218.66
2022-11-20T11:40:25.409Z,99214.06
2022-11-20T11:42:57.598Z,99212.66
2022-11-20T11:45:26.257Z,99209.19
2022-11-20T11:47:56.420Z,99211.25
2022-11-20T11:50:25.819Z,99201.78
2022-11-20T11:53:06.478Z,99200.53
2022-11-20T11:55:38.451Z,99194.16
2022-11-20T11:58:19.091Z,99189.44
2022-11-20T12:00:57.471Z,99186.16
2022-11-20T12:03:31.302Z,99193.78
2022-11-20T12:06:03.475Z,99189.50
2022-11-20T12:08:41.446Z,99192.97
2022-11-20T12:11:17.755Z,99188.75
2022-11-20T12:13:55.541Z,99197.72
2022-11-20T12:16:25.053Z,99190.66
2022-11-20T12:18:54.665Z,99193.00
2022-11-20T12:21:33.584Z,99188.41
2022-11-20T12:24:21.508Z,99189.88
2022-11-20T12:27:04.914Z,99188.25
2022-11-20T12:29:42.996Z,99188.59
2022-11-20T12:32:36.609Z,99184.09
2022-11-20T12:35:19.722Z,99189.75
2022-11-20T12:37:56.013Z,99187.25
2022-11-20T12:40:34.463Z,99181.97
2022-11-20T12:43:31.746Z,99186.06
2022-11-20T12:46:14.158Z,99191.97
2022-11-20T12:49:01.359Z,99181.84
2022-11-20T12:51:44.240Z,99172.56
2022-11-20T12:54:35.808Z,99168.66
2022-11-20T12:57:12.959Z,99161.97
2022-11-20T12:59:57.656Z,99162.69
2022-11-20T13:02:30.131Z,99162.56
2022-11-20T13:05:16.429Z,99158.50
2022-11-20T13:07:45.318Z,99160.81
2022-11-20T13:10:20.175Z,99158.75
2022-11-20T13:12:54.127Z,99163.16
2022-11-20T13:15:36.408Z,99153.25
2022-11-20T13:18:07.394Z,99159.00
2022-11-20T13:20:38.208Z,99151.53
2022-11-20T13:23:05.879Z,99152.50
2022-11-20T13:25:35.138Z,99145.06
2022-11-20T13:28:05.874Z,99138.59
2022-11-20T13:30:33.948Z,99145.00
2022-11-20T13:33:08.356Z,99143.56
2022-11-20T13:35:39.254Z,99137.69
2022-11-20T13:38:09.696Z,99136.41
2022-11-20T13:40:39.991Z,99132.69
2022-11-20T13:43:23.708Z,99132.03
2022-11-20T13:46:00.020Z,99128.84
2022-11-20T13:48:31.126Z,99121.94
2022-11-20T13:51:19.188Z,99117.97
2022-11-20T13:54:18.975Z,99126.25
2022-11-20T13:56:58.596Z,99110.38
2022-11-20T13:59:41.807Z,99102.00
2022-11-20T14:02:15.063Z,99102.94
2022-11-20T14:04:46.876Z,99103.53
2022-11-20T14:07:17.617Z,99094.88
2022-11-20T14:09:53.412Z,99094.75
2022-11-20T14:12:24.345Z,99091.75
2022-11-20T14:14:53.663Z,99091.16
2022-11-20T14:17:23.579Z,99092.09
2022-11-20T14:19:53.236Z,99093.09
2022-11-20T14:22:24.644Z,99090.50
2022-11-20T14:25:05.436Z,99094.25
2022-11-20T14:27:36.139Z,99107.06
2022-11-20T14:30:05.160Z,99097.88
2022-11-20T14:32:36.652Z,99102.34
2022-11-20T14:35:10.962Z,99099.09
2022-11-20T14:37:41.211Z,99088.84
2022-11-20T14:40:26.507Z,99095.38
2022-11-20T14:42:54.731Z,99087.03
2022-11-20T14:45:23.753Z,99088.00
2022-11-20T14:47:53.669Z,99078.47
2022-11-20T14:50:24.635Z,99086.56
2022-11-20T14:52:55.352Z,99075.06
2022-11-20T14:55:32.464Z,99070.56
2022-11-20T14:58:02.384Z,99064.50
2022-11-20T15:00:31.368Z,99068.66
2022-11-20T15:02:59.035Z,99068.94
2022-11-20T15:05:28.623Z,99068.28
2022-11-20T15:08:09.158Z,99067.97
2022-11-20T15:10:37.941Z,99065.63
2022-11-20T15:13:12.661Z,99066.59
2022-11-20T15:15:46.231Z,99064.44
2022-11-20T15:18:15.963Z,99069.91
2022-11-20T15:20:44.430Z,99072.72
2022-11-20T15:23:15.138Z,99066.59
2022-11-20T15:25:43.884Z,99065.31
2022-11-20T15:28:18.916Z,99070.75
2022-11-20T15:30:47.372Z,99067.31
2022-11-20T15:33:15.102Z,99072.66
2022-11-20T15:35:43.032Z,99068.84
2022-11-20T15:38:10.985Z,99061.25
2022-11-20T15:40:40.165Z,99058.78
2022-11-20T15:43:13.262Z,99056.31
2022-11-20T15:45:44.743Z,99056.03
2022-11-20T15:48:16.228Z,99051.88
2022-11-20T15:50:52.860Z,99047.84
2022-11-20T15:53:20.502Z,99040.34
2022-11-20T15:55:49.928Z,99040.50
2022-11-20T15:58:18.179Z,99041.72
2022-11-20T16:00:46.597Z,99038.44
2022-11-20T16:03:14.536Z,99037.50
2022-11-20T16:05:43.234Z,99028.59
2022-11-20T16:08:11.987Z,99025.91
2022-11-20T16:10:40.141Z,99025.63
2022-11-20T16:13:32.343Z,99022.50
2022-11-20T16:16:05.269Z,99021.34
2022-11-20T16:18:33.295Z,99025.63
2022-11-20T16:21:00.935Z,99024.66
2022-11-20T16:23:28.592Z,99020.34
2022-11-20T16:25:56.358Z,99004.19
2022-11-20T16:28:25.367Z,99013.41
2022-11-20T16:30:53.063Z,99012.44
2022-11-20T16:33:20.686Z,99009.97
2022-11-20T16:35:48.366Z,99010.13
2022-11-20T16:38:16.010Z,99013.44
2022-11-20T16:40:43.665Z,99002.88
2022-11-20T16:43:12.896Z,98999.09
2022-11-20T16:45:44.837Z,98992.31
2022-11-20T16:48:17.363Z,98994.81
2022-11-20T16:50:49.997Z,98995.81
2022-11-20T16:53:18.024Z,98988.38
2022-11-20T16:55:45.672Z,98990.19
2022-11-20T16:58:13.373Z,98987.06
2022-11-20T17:00:48.377Z,98982.16
2022-11-20T17:03:19.327Z,98997.19
2022-11-20T17:05:46.999Z,98986.34
2022-11-20T17:08:14.604Z,98991.78
2022-11-20T17:10:42.543Z,98983.72
2022-11-20T17:13:10.145Z,98983.72
2022-11-20T17:15:37.822Z,98972.06
2022-11-20T17:18:06.953Z,98968.00
2022-11-20T17:20:34.562Z,98962.56
2022-11-20T17:23:02.226Z,98965.22
2022-11-20T17:25:29.824Z,98962.06
2022-11-20T17:27:57.420Z,98964.38
2022-11-20T17:30:25.796Z,98954.00
2022-11-20T17:32:53.433Z,98948.44
2022-11-20T17:35:22.360Z,98949.44
2022-11-20T17:37:49.960Z,98952.72
2022-11-20T17:40:17.723Z,98947.00
2022-11-20T17:42:45.332Z,98945.50
2022-11-20T17:45:12.958Z,98942.50
2022-11-20T17:47:40.754Z,98947.47
2022-11-20T17:50:09.347Z,98942.06
2022-11-20T17:52:38.283Z,98947.16
2022-11-20T17:55:06.712Z,98941.06
2022-11-20T17:57:52.014Z,98943.72
2022-11-20T18:00:20.488Z,98935.88
2022-11-20T18:02:48.202Z,98934.38
2022-11-20T18:05:16.188Z,98936.34
2022-11-20T18:07:45.244Z,98927.47
2022-11-20T18:10:13.199Z,98931.59
2022-11-20T18:12:40.835Z,98920.22
2022-11-20T18:15:09.076Z,98926.19
2022-11-20T18:17:36.752Z,98925.03
2022-11-20T18:20:27.752Z,98924.38
2022-11-20T18:22:54.008Z,98911.41
2022-11-20T18:25:21.784Z,98912.56
2022-11-20T18:27:49.496Z,98909.59
2022-11-20T18:30:19.164Z,98917.66
2022-11-20T18:32:46.798Z,98908.13
2022-11-20T18:35:14.434Z,98908.13
2022-11-20T18:37:42.078Z,98902.69
2022-11-20T18:40:13.356Z,98898.78
2022-11-20T18:42:58.802Z,98899.41
2022-11-20T18:45:26.504Z,98897.59
2022-11-20T18:47:54.167Z,98892.47
2022-11-20T18:50:22.129Z,98894.81
2022-11-20T18:52:49.809Z,98888.06
2022-11-20T18:55:18.879Z,98888.72
2022-11-20T18:57:47.595Z,98901.06
2022-11-20T19:00:15.687Z,98893.31
2022-11-20T19:02:43.691Z,98885.78
2022-11-20T19:05:12.398Z,98886.09
2022-11-20T19:07:40.600Z,98882.28
2022-11-20T19:10:09.017Z,98884.28
2022-11-20T19:12:38.357Z,98884.13
2022-11-20T19:15:07.353Z,98882.78
2022-11-20T19:17:35.203Z,98881.34
2022-11-20T19:20:02.913Z,98881.28
2022-11-20T19:22:30.581Z,98885.41
2022-11-20T19:24:58.177Z,98879.63
2022-11-20T19:27:25.801Z,98880.09
2022-11-20T19:29:58.721Z,98877.72
2022-11-20T19:32:26.406Z,98875.41
2022-11-20T19:34:54.175Z,98870.97
2022-11-20T19:37:22.218Z,98870.97
2022-11-20T19:39:50.087Z,98878.56
2022-11-20T19:42:17.822Z,98883.81
2022-11-20T19:44:45.538Z,98881.34
2022-11-20T19:47:15.094Z,98877.25
2022-11-20T19:49:43.108Z,98875.09
2022-11-20T19:52:11.002Z,98871.34
2022-11-20T19:54:40.101Z,98850.63
2022-11-20T19:57:07.796Z,98846.66
2022-11-20T19:59:35.565Z,98851.44
2022-11-20T20:02:03.874Z,98850.97
2022-11-20T20:04:33.479Z,98859.00
2022-11-20T20:07:03.866Z,98861.31
2022-11-20T20:09:31.939Z,98859.00
2022-11-20T20:11:59.664Z,98861.63
2022-11-20T20:14:27.541Z,98870.50
2022-11-20T20:16:55.349Z,98875.97
2022-11-20T20:19:23.338Z,98878.25
2022-11-20T20:21:52.657Z,98874.78
2022-11-20T20:24:20.842Z,98865.09
2022-11-20T20:26:48.570Z,98864.59
2022-11-20T20:29:16.273Z,98864.06
2022-11-20T20:31:44.033Z,98868.03
2022-11-20T20:34:11.844Z,98857.69
2022-11-20T20:36:39.596Z,98860.97
2022-11-20T20:39:08.711Z,98854.88
2022-11-20T20:41:36.500Z,98854.06
2022-11-20T20:44:36.021Z,98854.41
2022-11-20T20:47:03.769Z,98863.59
2022-11-20T20:49:31.487Z,98855.09
2022-11-20T20:51:59.269Z,98860.81
2022-11-20T20:54:33.125Z,98869.22
2022-11-20T20:57:02.108Z,98853.75
2022-11-20T20:59:29.733Z,98862.16
2022-11-20T21:01:57.420Z,98858.19
2022-11-20T21:04:25.338Z,98860.00
2022-11-20T21:06:53.015Z,98863.59
2022-11-20T21:09:21.583Z,98858.84
2022-11-20T21:11:51.057Z,98867.88
2022-11-20T21:14:18.718Z,98860.50
2022-11-20T21:16:46.550Z,98866.75
2022-11-20T21:19:14.205Z,98864.44
2022-11-20T21:21:59.308Z,98869.03
2022-11-20T21:24:28.200Z,98862.47
2022-11-20T21:26:57.892Z,98855.56
2022-11-20T21:29:26.774Z,98850.09
2022-11-20T21:31:54.883Z,98840.59
2022-11-20T21:34:23.718Z,98838.94
2022-11-20T21:36:52.028Z,98833.19
2022-11-20T21:39:20.375Z,98825.66
2022-11-20T21:41:48.086Z,98823.16
2022-11-20T21:44:41.632Z,98822.19
2022-11-20T21:47:05.016Z,98813.28
2022-11-20T21:49:32.602Z,98814.09
2022-11-20T21:52:00.306Z,98815.59
2022-11-20T21:54:28.005Z,98817.22
2022-11-20T21:56:55.671Z,98811.16
2022-11-20T21:59:24.873Z,98800.28
2022-11-20T22:01:52.559Z,98802.59
2022-11-20T22:04:21.369Z,98803.06
2022-11-20T22:06:49.309Z,98808.47
2022-11-20T22:09:17.049Z,98808.28
2022-11-20T22:11:44.667Z,98797.59
2022-11-20T22:14:20.677Z,98802.69
2022-11-20T22:16:51.149Z,98794.78
2022-11-20T22:19:19.996Z,98794.44
2022-11-20T22:21:50.506Z,98792.00
2022-11-20T22:24:19.814Z,98796.72
2022-11-20T22:26:48.041Z,98812.34
2022-11-20T22:29:17.524Z,98799.19
2022-11-20T22:31:45.442Z,98808.56
2022-11-20T22:34:15.200Z,98805.94
2022-11-20T22:36:42.843Z,98809.56
2022-11-20T22:39:10.682Z,98812.34
2022-11-20T22:41:38.345Z,98820.06
2022-11-20T22:44:08.368Z,98814.66
2022-11-20T22:46:37.916Z,98817.59
2022-11-20T22:49:08.306Z,98818.75
2022-11-20T22:51:38.760Z,98828.28
2022-11-20T22:54:06.855Z,98826.16
2022-11-20T22:56:35.204Z,98832.22
2022-11-20T22:59:03.049Z,98841.28
2022-11-20T23:01:32.571Z,98842.78
2022-11-20T23:04:01.850Z,98837.34
2022-11-20T23:06:30.877Z,98838.66
2022-11-20T23:08:59.812Z,98838.16
2022-11-20T23:11:29.799Z,98847.88
2022-11-20T23:13:59.344Z,98845.88
2022-11-20T23:16:28.659Z,98845.88
2022-11-20T23:18:57.740Z,98835.84
2022-11-20T23:21:26.015Z,98840.28
2022-11-20T23:23:55.754Z,98838.94
2022-11-20T23:26:27.477Z,98827.75
2022-11-20T23:28:57.566Z,98813.31
2022-11-20T23:31:26.643Z,98828.28
2022-11-20T23:33:54.912Z,98823.69
2022-11-20T23:36:22.727Z,98827.75
2022-11-20T23:38:51.387Z,98822.34
2022-11-20T23:41:19.297Z,98821.50
2022-11-20T23:43:48.339Z,98826.63
2022-11-20T23:46:17.017Z,98823.03
2022-11-20T23:48:45.825Z,98819.25
2022-11-20T23:51:14.487Z,98821.22
2022-11-20T23:53:42.473Z,98822.84
2022-11-20T23:56:11.675Z,98825.31
2022-11-20T23:58:39.859Z,98813.63
